createdAt,value
2017-10-11T00:00:16.844Z,1008.88
2017-10-11T00:01:25.679Z,1008.81
2017-10-11T00:02:34.520Z,1008.87
2017-10-11T00:03:43.367Z,1008.85
2017-10-11T00:04:52.206Z,1008.87
2017-10-11T00:06:01.040Z,1008.89
2017-10-11T00:07:09.879Z,1008.9
2017-10-11T00:08:18.718Z,1008.89
2017-10-11T00:09:27.554Z,1008.81
2017-10-11T00:10:36.396Z,1008.82
2017-10-11T00:11:45.235Z,1008.82
2017-10-11T00:12:54.076Z,1008.87
2017-10-11T00:14:02.915Z,1008.86
2017-10-11T00:15:11.764Z,1008.83
2017-10-11T00:16:20.604Z,1008.83
2017-10-11T00:17:29.441Z,1008.87
2017-10-11T00:18:38.280Z,1008.82
2017-10-11T00:19:47.123Z,1008.87
2017-10-11T00:20:55.987Z,1008.83
2017-10-11T00:22:04.803Z,1008.85
2017-10-11T00:23:13.639Z,1008.87
2017-10-11T00:24:22.480Z,1008.87
2017-10-11T00:25:31.325Z,1008.83
2017-10-11T00:26:40.489Z,1008.86
2017-10-11T00:27:49.336Z,1008.85
2017-10-11T00:28:58.174Z,1008.86
2017-10-11T00:30:07.008Z,1008.85
2017-10-11T00:31:15.852Z,1008.83
2017-10-11T00:32:25.031Z,1008.81
2017-10-11T00:33:33.874Z,1008.79
2017-10-11T00:34:42.709Z,1008.8
2017-10-11T00:35:51.543Z,1008.83
2017-10-11T00:37:00.379Z,1008.82
2017-10-11T00:38:09.219Z,1008.81
2017-10-11T00:39:18.060Z,1008.8
2017-10-11T00:40:26.897Z,1008.81
2017-10-11T00:41:35.740Z,1008.72
2017-10-11T00:42:44.574Z,1008.77
2017-10-11T00:43:53.415Z,1008.78
2017-10-11T00:45:02.257Z,1008.75
2017-10-11T00:46:11.092Z,1008.77
2017-10-11T00:47:19.931Z,1008.77
2017-10-11T00:48:28.768Z,1008.75
2017-10-11T00:49:37.611Z,1008.83
2017-10-11T00:50:46.449Z,1008.82
2017-10-11T00:51:55.294Z,1008.79
2017-10-11T00:53:04.128Z,1008.79
2017-10-11T00:54:12.967Z,1008.83
2017-10-11T00:55:21.806Z,1008.8
2017-10-11T00:56:30.644Z,1008.81
2017-10-11T00:57:39.485Z,1008.83
2017-10-11T00:58:48.321Z,1008.88
2017-10-11T00:59:57.159Z,1008.82
2017-10-11T01:01:05.999Z,1008.78
2017-10-11T01:02:14.837Z,1008.82
2017-10-11T01:03:23.676Z,1008.82
2017-10-11T01:04:32.520Z,1008.86
2017-10-11T01:05:41.355Z,1008.85
2017-10-11T01:06:50.194Z,1008.86
2017-10-11T01:07:59.369Z,1008.83
2017-10-11T01:09:08.206Z,1008.85
2017-10-11T01:10:17.047Z,1008.87
2017-10-11T01:11:25.885Z,1008.88
2017-10-11T01:12:34.729Z,1008.82
2017-10-11T01:13:43.568Z,1008.85
2017-10-11T01:14:52.411Z,1008.84
2017-10-11T01:16:01.253Z,1008.87
2017-10-11T01:17:10.093Z,1008.89
2017-10-11T01:18:18.934Z,1008.9
2017-10-11T01:19:27.773Z,1008.89
2017-10-11T01:20:36.611Z,1008.88
2017-10-11T01:21:45.448Z,1008.83
2017-10-11T01:22:54.293Z,1008.83
2017-10-11T01:24:03.130Z,1008.84
2017-10-11T01:25:11.972Z,1008.86
2017-10-11T01:26:20.808Z,1008.82
2017-10-11T01:27:29.644Z,1008.86
2017-10-11T01:28:38.488Z,1008.88
2017-10-11T01:29:47.327Z,1008.84
2017-10-11T01:30:56.160Z,1008.85
2017-10-11T01:32:05.008Z,1008.85
2017-10-11T01:33:13.844Z,1008.84
2017-10-11T01:34:22.680Z,1008.91
2017-10-11T01:35:31.856Z,1008.87
2017-10-11T01:36:40.698Z,1008.84
2017-10-11T01:37:49.878Z,1008.83
2017-10-11T01:38:58.717Z,1008.89
2017-10-11T01:40:07.553Z,1008.85
2017-10-11T01:41:16.393Z,1008.91
2017-10-11T01:42:25.234Z,1008.91
2017-10-11T01:43:34.071Z,1008.89
2017-10-11T01:44:42.912Z,1008.9
2017-10-11T01:45:51.758Z,1008.85
2017-10-11T01:47:00.597Z,1008.89
2017-10-11T01:48:09.431Z,1008.87
2017-10-11T01:49:18.271Z,1008.85
2017-10-11T01:50:27.113Z,1008.87
2017-10-11T01:51:36.289Z,1008.88
2017-10-11T01:52:45.130Z,1008.87
2017-10-11T01:53:53.965Z,1008.8
2017-10-11T01:55:03.139Z,1008.76
2017-10-11T01:56:11.974Z,1008.79
2017-10-11T01:57:20.816Z,1008.78
2017-10-11T01:58:29.652Z,1008.77
2017-10-11T01:59:38.490Z,1008.8
2017-10-11T02:00:47.332Z,1008.81
2017-10-11T02:01:56.168Z,1008.82
2017-10-11T02:03:05.027Z,1008.83
2017-10-11T02:04:13.844Z,1008.84
2017-10-11T02:05:23.030Z,1008.83
2017-10-11T02:06:31.864Z,1008.8
2017-10-11T02:07:40.709Z,1008.82
2017-10-11T02:08:49.542Z,1008.81
2017-10-11T02:09:58.386Z,1008.75
2017-10-11T02:11:07.224Z,1008.82
2017-10-11T02:12:16.067Z,1008.77
2017-10-11T02:13:25.239Z,1008.8
2017-10-11T02:14:34.417Z,1008.79
2017-10-11T02:15:43.258Z,1008.81
2017-10-11T02:16:52.095Z,1008.81
2017-10-11T02:18:01.275Z,1008.82
2017-10-11T02:19:10.115Z,1008.82
2017-10-11T02:20:18.952Z,1008.84
2017-10-11T02:21:27.792Z,1008.85
2017-10-11T02:22:36.636Z,1008.81
2017-10-11T02:23:45.474Z,1008.86
2017-10-11T02:24:54.312Z,1008.77
2017-10-11T02:26:03.153Z,1008.78
2017-10-11T02:27:11.992Z,1008.8
2017-10-11T02:28:21.172Z,1008.85
2017-10-11T02:29:30.013Z,1008.83
2017-10-11T02:30:38.852Z,1008.82
2017-10-11T02:31:47.693Z,1008.81
2017-10-11T02:32:56.530Z,1008.86
2017-10-11T02:34:05.367Z,1008.84
2017-10-11T02:35:14.207Z,1008.87
2017-10-11T02:36:23.053Z,1008.87
2017-10-11T02:37:31.892Z,1008.81
2017-10-11T02:38:40.735Z,1008.85
2017-10-11T02:39:49.573Z,1008.84
2017-10-11T02:40:58.410Z,1008.86
2017-10-11T02:42:07.251Z,1008.84
2017-10-11T02:43:16.090Z,1008.86
2017-10-11T02:44:24.925Z,1008.86
2017-10-11T02:45:33.768Z,1008.84
2017-10-11T02:46:42.602Z,1008.84
2017-10-11T02:47:51.446Z,1008.84
2017-10-11T02:49:00.282Z,1008.86
2017-10-11T02:50:09.124Z,1008.85
2017-10-11T02:51:17.957Z,1008.82
2017-10-11T02:52:26.800Z,1008.85
2017-10-11T02:53:35.651Z,1008.81
2017-10-11T02:54:44.478Z,1008.8
2017-10-11T02:55:53.317Z,1008.8
2017-10-11T02:57:02.160Z,1008.81
2017-10-11T02:58:10.996Z,1008.85
2017-10-11T02:59:19.830Z,1008.86
2017-10-11T03:00:28.668Z,1008.8
2017-10-11T03:01:37.506Z,1008.83
2017-10-11T03:02:46.347Z,1008.84
2017-10-11T03:03:55.188Z,1008.79
2017-10-11T03:05:04.370Z,1008.85
2017-10-11T03:06:13.204Z,1008.77
2017-10-11T03:07:22.046Z,1008.81
2017-10-11T03:08:31.225Z,1008.8
2017-10-11T03:09:40.068Z,1008.78
2017-10-11T03:10:48.911Z,1008.8
2017-10-11T03:11:57.744Z,1008.75
2017-10-11T03:13:06.580Z,1008.85
2017-10-11T03:14:15.422Z,1008.81
2017-10-11T03:15:24.258Z,1008.84
2017-10-11T03:16:33.103Z,1008.8
2017-10-11T03:17:41.945Z,1008.76
2017-10-11T03:18:50.780Z,1008.76
2017-10-11T03:19:59.624Z,1008.78
2017-10-11T03:21:08.465Z,1008.76
2017-10-11T03:22:17.300Z,1008.78
2017-10-11T03:23:26.138Z,1008.74
2017-10-11T03:24:34.981Z,1008.74
2017-10-11T03:25:43.822Z,1008.73
2017-10-11T03:26:52.661Z,1008.74
2017-10-11T03:28:01.496Z,1008.73
2017-10-11T03:29:10.332Z,1008.8
2017-10-11T03:30:19.172Z,1008.73
2017-10-11T03:31:28.013Z,1008.76
2017-10-11T03:32:36.846Z,1008.7
2017-10-11T03:33:45.684Z,1008.73
2017-10-11T03:34:54.524Z,1008.77
2017-10-11T03:36:03.695Z,1008.76
2017-10-11T03:37:12.536Z,1008.79
2017-10-11T03:38:21.374Z,1008.76
2017-10-11T03:39:30.223Z,1008.75
2017-10-11T03:40:39.402Z,1008.78
2017-10-11T03:41:48.581Z,1008.75
2017-10-11T03:42:57.428Z,1008.74
2017-10-11T03:44:06.265Z,1008.74
2017-10-11T03:45:15.099Z,1008.77
2017-10-11T03:46:23.937Z,1008.75
2017-10-11T03:47:32.779Z,1008.76
2017-10-11T03:48:41.608Z,1008.68
2017-10-11T03:49:50.443Z,1008.71
2017-10-11T03:50:59.274Z,1008.74
2017-10-11T03:52:08.106Z,1008.76
2017-10-11T03:53:16.940Z,1008.74
2017-10-11T03:54:25.779Z,1008.74
2017-10-11T03:55:34.611Z,1008.79
2017-10-11T03:56:43.441Z,1008.78
2017-10-11T03:57:52.274Z,1008.75
2017-10-11T03:59:01.108Z,1008.78
2017-10-11T04:00:09.945Z,1008.81
2017-10-11T04:01:18.788Z,1008.82
2017-10-11T04:02:27.615Z,1008.8
2017-10-11T04:03:36.452Z,1008.81
2017-10-11T04:04:45.630Z,1008.74
2017-10-11T04:05:54.461Z,1008.78
2017-10-11T04:07:03.293Z,1008.77
2017-10-11T04:08:12.127Z,1008.74
2017-10-11T04:09:20.963Z,1008.77
2017-10-11T04:10:29.795Z,1008.73
2017-10-11T04:11:38.632Z,1008.74
2017-10-11T04:12:47.470Z,1008.76
2017-10-11T04:13:56.304Z,1008.72
2017-10-11T04:15:05.140Z,1008.73
2017-10-11T04:16:13.972Z,1008.77
2017-10-11T04:17:22.801Z,1008.78
2017-10-11T04:18:31.638Z,1008.73
2017-10-11T04:19:40.474Z,1008.77
2017-10-11T04:20:49.306Z,1008.76
2017-10-11T04:21:58.138Z,1008.79
2017-10-11T04:23:06.971Z,1008.77
2017-10-11T04:24:15.802Z,1008.81
2017-10-11T04:25:24.639Z,1008.7
2017-10-11T04:26:33.473Z,1008.74
2017-10-11T04:27:42.305Z,1008.69
2017-10-11T04:28:51.140Z,1008.73
2017-10-11T04:29:59.975Z,1008.76
2017-10-11T04:31:08.812Z,1008.74
2017-10-11T04:32:17.647Z,1008.76
2017-10-11T04:33:26.485Z,1008.79
2017-10-11T04:34:35.313Z,1008.76
2017-10-11T04:35:44.149Z,1008.76
2017-10-11T04:36:52.984Z,1008.75
2017-10-11T04:38:01.814Z,1008.67
2017-10-11T04:39:10.989Z,1008.71
2017-10-11T04:40:19.821Z,1008.75
2017-10-11T04:41:28.661Z,1008.75
2017-10-11T04:42:37.836Z,1008.73
2017-10-11T04:43:46.671Z,1008.79
2017-10-11T04:44:55.502Z,1008.72
2017-10-11T04:46:04.671Z,1008.74
2017-10-11T04:47:13.509Z,1008.72
2017-10-11T04:48:22.349Z,1008.73
2017-10-11T04:49:31.185Z,1008.73
2017-10-11T04:50:40.349Z,1008.75
2017-10-11T04:51:49.181Z,1008.71
2017-10-11T04:52:58.018Z,1008.78
2017-10-11T04:54:06.858Z,1008.76
2017-10-11T04:55:15.692Z,1008.75
2017-10-11T04:56:24.532Z,1008.8
2017-10-11T04:57:33.364Z,1008.79
2017-10-11T04:58:42.200Z,1008.77
2017-10-11T04:59:51.032Z,1008.79
2017-10-11T05:00:59.864Z,1008.77
2017-10-11T05:02:08.697Z,1008.76
2017-10-11T05:03:17.868Z,1008.81
2017-10-11T05:04:26.700Z,1008.81
2017-10-11T05:05:35.542Z,1008.79
2017-10-11T05:06:44.369Z,1008.76
2017-10-11T05:07:53.199Z,1008.81
2017-10-11T05:09:02.039Z,1008.77
2017-10-11T05:10:10.873Z,1008.83
2017-10-11T05:11:19.705Z,1008.83
2017-10-11T05:12:28.539Z,1008.83
2017-10-11T05:13:37.372Z,1008.85
2017-10-11T05:14:46.202Z,1008.85
2017-10-11T05:15:55.049Z,1008.9
2017-10-11T05:17:03.870Z,1008.88
2017-10-11T05:18:12.698Z,1008.84
2017-10-11T05:19:21.533Z,1008.84
2017-10-11T05:20:30.369Z,1008.83
2017-10-11T05:21:39.201Z,1008.83
2017-10-11T05:22:48.038Z,1008.82
2017-10-11T05:23:56.873Z,1008.85
2017-10-11T05:25:05.755Z,1008.89
2017-10-11T05:26:14.588Z,1008.92
2017-10-11T05:27:23.424Z,1008.91
2017-10-11T05:28:32.259Z,1008.93
2017-10-11T05:29:41.091Z,1008.96
2017-10-11T05:30:49.933Z,1008.91
2017-10-11T05:31:58.762Z,1008.93
2017-10-11T05:33:07.596Z,1008.92
2017-10-11T05:34:16.433Z,1008.94
2017-10-11T05:35:25.270Z,1008.99
2017-10-11T05:36:34.100Z,1008.95
2017-10-11T05:37:42.936Z,1008.9
2017-10-11T05:38:51.771Z,1008.93
2017-10-11T05:40:00.609Z,1008.92
2017-10-11T05:41:09.437Z,1008.95
2017-10-11T05:42:18.607Z,1008.9
2017-10-11T05:43:27.453Z,1008.9
2017-10-11T05:44:36.278Z,1008.95
2017-10-11T05:45:45.108Z,1008.91
2017-10-11T05:46:53.943Z,1008.97
2017-10-11T05:48:03.113Z,1008.97
2017-10-11T05:49:11.959Z,1008.98
2017-10-11T05:50:20.780Z,1008.95
2017-10-11T05:51:29.620Z,1008.97
2017-10-11T05:52:38.451Z,1008.94
2017-10-11T05:53:47.286Z,1008.91
2017-10-11T05:54:56.118Z,1008.96
2017-10-11T05:56:04.958Z,1008.98
2017-10-11T05:57:13.788Z,1008.93
2017-10-11T05:58:22.624Z,1008.96
2017-10-11T05:59:31.463Z,1008.96
2017-10-11T06:00:40.297Z,1009
2017-10-11T06:01:49.468Z,1009
2017-10-11T06:02:58.305Z,1009
2017-10-11T06:04:07.148Z,1009.03
2017-10-11T06:05:15.979Z,1009.02
2017-10-11T06:06:24.814Z,1009.01
2017-10-11T06:07:33.644Z,1009.02
2017-10-11T06:08:42.484Z,1009
2017-10-11T06:09:51.322Z,1009.02
2017-10-11T06:11:00.157Z,1009.05
2017-10-11T06:12:08.988Z,1009.04
2017-10-11T06:13:17.821Z,1009.04
2017-10-11T06:14:26.653Z,1009.07
2017-10-11T06:15:35.826Z,1009.08
2017-10-11T06:16:44.663Z,1009.05
2017-10-11T06:17:53.497Z,1009.06
2017-10-11T06:19:02.335Z,1009.06
2017-10-11T06:20:11.167Z,1009.01
2017-10-11T06:21:20.369Z,1009.04
2017-10-11T06:22:29.207Z,1009.06
2017-10-11T06:23:38.045Z,1009.06
2017-10-11T06:24:46.874Z,1009.03
2017-10-11T06:25:55.711Z,1009.1
2017-10-11T06:27:04.541Z,1009.13
2017-10-11T06:28:13.372Z,1009.09
2017-10-11T06:29:22.211Z,1009.09
2017-10-11T06:30:31.049Z,1009.09
2017-10-11T06:31:39.881Z,1009.12
2017-10-11T06:32:48.712Z,1009.15
2017-10-11T06:33:57.547Z,1009.16
2017-10-11T06:35:06.718Z,1009.16
2017-10-11T06:36:15.553Z,1009.14
2017-10-11T06:37:24.389Z,1009.14
2017-10-11T06:38:33.222Z,1009.2
2017-10-11T06:39:42.395Z,1009.19
2017-10-11T06:40:51.230Z,1009.19
2017-10-11T06:42:00.063Z,1009.18
2017-10-11T06:43:08.899Z,1009.2
2017-10-11T06:44:17.737Z,1009.19
2017-10-11T06:45:26.566Z,1009.22
2017-10-11T06:46:35.404Z,1009.17
2017-10-11T06:47:44.242Z,1009.22
2017-10-11T06:48:53.407Z,1009.25
2017-10-11T06:50:02.241Z,1009.23
2017-10-11T06:51:11.076Z,1009.24
2017-10-11T06:52:19.919Z,1009.24
2017-10-11T06:53:28.753Z,1009.24
2017-10-11T06:54:37.588Z,1009.21
2017-10-11T06:55:46.421Z,1009.23
2017-10-11T06:56:55.258Z,1009.25
2017-10-11T06:58:04.093Z,1009.26
2017-10-11T06:59:12.933Z,1009.25
2017-10-11T07:00:21.764Z,1009.24
2017-10-11T07:01:30.595Z,1009.23
2017-10-11T07:02:39.427Z,1009.23
2017-10-11T07:03:48.262Z,1009.28
2017-10-11T07:04:57.094Z,1009.24
2017-10-11T07:06:05.932Z,1009.26
2017-10-11T07:07:14.764Z,1009.24
2017-10-11T07:08:23.601Z,1009.22
2017-10-11T07:09:32.432Z,1009.23
2017-10-11T07:10:41.272Z,1009.28
2017-10-11T07:11:50.101Z,1009.26
2017-10-11T07:12:58.937Z,1009.23
2017-10-11T07:14:07.768Z,1009.28
2017-10-11T07:15:16.612Z,1009.3
2017-10-11T07:16:25.448Z,1009.25
2017-10-11T07:17:34.285Z,1009.27
2017-10-11T07:18:43.119Z,1009.31
2017-10-11T07:19:51.956Z,1009.24
2017-10-11T07:21:00.794Z,1009.27
2017-10-11T07:22:09.632Z,1009.29
2017-10-11T07:23:18.459Z,1009.27
2017-10-11T07:24:27.296Z,1009.29
2017-10-11T07:25:36.126Z,1009.29
2017-10-11T07:26:44.965Z,1009.34
2017-10-11T07:27:53.806Z,1009.28
2017-10-11T07:29:02.639Z,1009.34
2017-10-11T07:30:11.470Z,1009.31
2017-10-11T07:31:20.307Z,1009.36
2017-10-11T07:32:29.138Z,1009.37
2017-10-11T07:33:37.974Z,1009.33
2017-10-11T07:34:46.811Z,1009.39
2017-10-11T07:35:55.642Z,1009.36
2017-10-11T07:37:04.474Z,1009.4
2017-10-11T07:38:13.316Z,1009.35
2017-10-11T07:39:22.146Z,1009.35
2017-10-11T07:40:30.987Z,1009.44
2017-10-11T07:41:39.819Z,1009.38
2017-10-11T07:42:48.653Z,1009.34
2017-10-11T07:43:57.487Z,1009.37
2017-10-11T07:45:06.665Z,1009.38
2017-10-11T07:46:15.510Z,1009.34
2017-10-11T07:47:24.339Z,1009.37
2017-10-11T07:48:33.177Z,1009.35
2017-10-11T07:49:42.344Z,1009.42
2017-10-11T07:50:51.175Z,1009.38
2017-10-11T07:52:00.012Z,1009.41
2017-10-11T07:53:08.855Z,1009.44
2017-10-11T07:54:17.685Z,1009.42
2017-10-11T07:55:26.519Z,1009.46
2017-10-11T07:56:35.352Z,1009.45
2017-10-11T07:57:44.186Z,1009.47
2017-10-11T07:58:53.023Z,1009.44
2017-10-11T08:00:01.861Z,1009.46
2017-10-11T08:01:11.026Z,1009.51
2017-10-11T08:02:19.864Z,1009.5
2017-10-11T08:03:28.694Z,1009.49
2017-10-11T08:04:37.532Z,1009.42
2017-10-11T08:05:46.374Z,1009.38
2017-10-11T08:06:55.210Z,1009.43
2017-10-11T08:08:04.377Z,1009.45
2017-10-11T08:09:13.213Z,1009.42
2017-10-11T08:10:22.048Z,1009.44
2017-10-11T08:11:30.881Z,1009.48
2017-10-11T08:12:39.714Z,1009.49
2017-10-11T08:13:48.550Z,1009.5
2017-10-11T08:14:57.383Z,1009.52
2017-10-11T08:16:06.219Z,1009.53
2017-10-11T08:17:15.051Z,1009.55
2017-10-11T08:18:23.886Z,1009.57
2017-10-11T08:19:32.718Z,1009.55
2017-10-11T08:20:41.553Z,1009.59
2017-10-11T08:21:50.388Z,1009.59
2017-10-11T08:22:59.225Z,1009.54
2017-10-11T08:24:08.064Z,1009.57
2017-10-11T08:25:16.896Z,1009.53
2017-10-11T08:26:26.065Z,1009.55
2017-10-11T08:27:35.241Z,1009.58
2017-10-11T08:28:44.412Z,1009.55
2017-10-11T08:29:53.246Z,1009.59
2017-10-11T08:31:02.094Z,1009.51
2017-10-11T08:32:10.930Z,1009.52
2017-10-11T08:33:19.770Z,1009.55
2017-10-11T08:34:28.952Z,1009.53
2017-10-11T08:35:37.784Z,1009.47
2017-10-11T08:36:46.614Z,1009.53
2017-10-11T08:37:55.451Z,1009.61
2017-10-11T08:39:04.284Z,1009.6
2017-10-11T08:40:13.128Z,1009.58
2017-10-11T08:41:21.965Z,1009.64
2017-10-11T08:42:30.797Z,1009.56
2017-10-11T08:43:39.634Z,1009.58
2017-10-11T08:44:48.475Z,1009.6
2017-10-11T08:45:57.306Z,1009.58
2017-10-11T08:47:06.142Z,1009.56
2017-10-11T08:48:14.981Z,1009.58
2017-10-11T08:49:23.814Z,1009.57
2017-10-11T08:50:32.648Z,1009.65
2017-10-11T08:51:41.484Z,1009.58
2017-10-11T08:52:50.326Z,1009.54
2017-10-11T08:53:59.158Z,1009.61
2017-10-11T08:55:07.989Z,1009.58
2017-10-11T08:56:16.827Z,1009.57
2017-10-11T08:57:25.668Z,1009.58
2017-10-11T08:58:34.494Z,1009.54
2017-10-11T08:59:43.330Z,1009.58
2017-10-11T09:00:52.164Z,1009.64
2017-10-11T09:02:01.003Z,1009.68
2017-10-11T09:03:09.842Z,1009.68
2017-10-11T09:04:18.679Z,1009.62
2017-10-11T09:05:27.857Z,1009.58
2017-10-11T09:06:36.691Z,1009.63
2017-10-11T09:07:45.529Z,1009.67
2017-10-11T09:08:54.359Z,1009.67
2017-10-11T09:10:03.194Z,1009.68
2017-10-11T09:11:12.033Z,1009.68
2017-10-11T09:12:20.866Z,1009.68
2017-10-11T09:13:30.045Z,1009.64
2017-10-11T09:14:38.876Z,1009.69
2017-10-11T09:15:47.714Z,1009.64
2017-10-11T09:16:56.545Z,1009.71
2017-10-11T09:18:05.386Z,1009.71
2017-10-11T09:19:14.221Z,1009.61
2017-10-11T09:20:23.051Z,1009.74
2017-10-11T09:21:31.887Z,1009.68
2017-10-11T09:22:40.724Z,1009.62
2017-10-11T09:23:49.561Z,1009.65
2017-10-11T09:24:58.398Z,1009.68
2017-10-11T09:26:07.229Z,1009.68
2017-10-11T09:27:16.068Z,1009.7
2017-10-11T09:28:24.901Z,1009.68
2017-10-11T09:29:33.739Z,1009.66
2017-10-11T09:30:42.576Z,1009.75
2017-10-11T09:31:51.418Z,1009.81
2017-10-11T09:33:00.254Z,1009.73
2017-10-11T09:34:09.088Z,1009.71
2017-10-11T09:35:17.930Z,1009.76
2017-10-11T09:36:26.769Z,1009.8
2017-10-11T09:37:35.606Z,1009.88
2017-10-11T09:38:44.437Z,1009.8
2017-10-11T09:39:53.279Z,1009.79
2017-10-11T09:41:02.445Z,1009.74
2017-10-11T09:42:11.286Z,1009.75
2017-10-11T09:43:20.126Z,1009.77
2017-10-11T09:44:28.959Z,1009.7
2017-10-11T09:45:38.134Z,1009.71
2017-10-11T09:46:46.964Z,1009.72
2017-10-11T09:47:55.800Z,1009.75
2017-10-11T09:49:04.640Z,1009.8
2017-10-11T09:50:13.481Z,1009.75
2017-10-11T09:51:22.314Z,1009.81
2017-10-11T09:52:31.152Z,1009.85
2017-10-11T09:53:40.318Z,1009.83
2017-10-11T09:54:49.155Z,1009.92
2017-10-11T09:55:58.359Z,1009.9
2017-10-11T09:57:07.201Z,1009.85
2017-10-11T09:58:16.036Z,1009.9
2017-10-11T09:59:24.875Z,1009.9
2017-10-11T10:00:33.708Z,1010.01
2017-10-11T10:01:42.539Z,1010.02
2017-10-11T10:02:51.378Z,1009.96
2017-10-11T10:04:00.219Z,1009.97
2017-10-11T10:05:09.055Z,1009.9
2017-10-11T10:06:17.894Z,1009.92
2017-10-11T10:07:26.726Z,1009.96
2017-10-11T10:08:35.565Z,1009.93
2017-10-11T10:09:44.398Z,1009.86
2017-10-11T10:10:53.240Z,1009.9
2017-10-11T10:12:02.070Z,1009.94
2017-10-11T10:13:10.907Z,1009.93
2017-10-11T10:14:19.741Z,1009.98
2017-10-11T10:15:28.579Z,1009.96
2017-10-11T10:16:37.417Z,1009.93
2017-10-11T10:17:46.255Z,1009.93
2017-10-11T10:18:55.091Z,1009.94
2017-10-11T10:20:03.923Z,1010.02
2017-10-11T10:21:12.772Z,1009.98
2017-10-11T10:22:21.603Z,1009.98
2017-10-11T10:23:30.439Z,1009.94
2017-10-11T10:24:39.279Z,1009.92
2017-10-11T10:25:48.108Z,1009.93
2017-10-11T10:26:56.947Z,1009.97
2017-10-11T10:28:05.785Z,1009.99
2017-10-11T10:29:14.622Z,1009.99
2017-10-11T10:30:23.458Z,1009.97
2017-10-11T10:31:32.293Z,1009.91
2017-10-11T10:32:41.129Z,1009.93
2017-10-11T10:33:50.302Z,1009.87
2017-10-11T10:34:59.142Z,1009.89
2017-10-11T10:36:07.974Z,1009.89
2017-10-11T10:37:16.810Z,1009.86
2017-10-11T10:38:25.994Z,1009.86
2017-10-11T10:39:34.828Z,1009.89
2017-10-11T10:40:43.664Z,1009.89
2017-10-11T10:41:52.497Z,1009.89
2017-10-11T10:43:01.334Z,1009.93
2017-10-11T10:44:10.168Z,1009.9
2017-10-11T10:45:19.006Z,1009.89
2017-10-11T10:46:27.839Z,1009.93
2017-10-11T10:47:36.675Z,1009.94
2017-10-11T10:48:45.513Z,1009.87
2017-10-11T10:49:54.352Z,1009.88
2017-10-11T10:51:03.190Z,1009.86
2017-10-11T10:52:12.025Z,1009.87
2017-10-11T10:53:20.857Z,1009.86
2017-10-11T10:54:29.698Z,1009.86
2017-10-11T10:55:38.533Z,1009.87
2017-10-11T10:56:47.707Z,1009.92
2017-10-11T10:57:56.540Z,1009.94
2017-10-11T10:59:05.377Z,1010.02
2017-10-11T11:00:14.216Z,1009.97
2017-10-11T11:01:23.055Z,1009.93
2017-10-11T11:02:31.890Z,1009.94
2017-10-11T11:03:40.724Z,1009.94
2017-10-11T11:04:49.563Z,1009.95
2017-10-11T11:05:58.396Z,1009.89
2017-10-11T11:07:07.235Z,1009.94
2017-10-11T11:08:16.076Z,1009.88
2017-10-11T11:09:24.910Z,1009.92
2017-10-11T11:10:33.740Z,1009.9
2017-10-11T11:11:42.913Z,1009.91
2017-10-11T11:12:51.749Z,1009.93
2017-10-11T11:14:00.587Z,1009.94
2017-10-11T11:15:09.425Z,1009.95
2017-10-11T11:16:18.257Z,1009.96
2017-10-11T11:17:27.094Z,1009.93
2017-10-11T11:18:35.931Z,1009.97
2017-10-11T11:19:44.762Z,1009.96
2017-10-11T11:20:53.600Z,1009.93
2017-10-11T11:22:02.435Z,1009.96
2017-10-11T11:23:11.271Z,1009.98
2017-10-11T11:24:20.103Z,1009.96
2017-10-11T11:25:28.949Z,1010.03
2017-10-11T11:26:37.784Z,1009.97
2017-10-11T11:27:46.616Z,1009.96
2017-10-11T11:28:55.449Z,1009.98
2017-10-11T11:30:04.287Z,1009.97
2017-10-11T11:31:13.123Z,1009.93
2017-10-11T11:32:21.957Z,1009.95
2017-10-11T11:33:30.794Z,1009.94
2017-10-11T11:34:39.629Z,1009.91
2017-10-11T11:35:48.467Z,1009.89
2017-10-11T11:36:57.303Z,1009.89
2017-10-11T11:38:06.130Z,1009.94
2017-10-11T11:39:14.964Z,1009.86
2017-10-11T11:40:23.796Z,1009.89
2017-10-11T11:41:32.634Z,1009.87
2017-10-11T11:42:41.811Z,1009.9
2017-10-11T11:43:50.645Z,1009.89
2017-10-11T11:44:59.480Z,1009.84
2017-10-11T11:46:08.319Z,1009.83
2017-10-11T11:47:17.156Z,1009.85
2017-10-11T11:48:25.991Z,1009.85
2017-10-11T11:49:34.827Z,1009.85
2017-10-11T11:50:43.662Z,1009.86
2017-10-11T11:51:52.502Z,1009.89
2017-10-11T11:53:01.337Z,1009.87
2017-10-11T11:54:10.174Z,1009.85
2017-10-11T11:55:19.007Z,1009.78
2017-10-11T11:56:27.854Z,1009.84
2017-10-11T11:57:37.019Z,1009.82
2017-10-11T11:58:45.854Z,1009.77
2017-10-11T11:59:54.691Z,1009.82
2017-10-11T12:01:03.522Z,1009.84
2017-10-11T12:02:12.360Z,1009.8
2017-10-11T12:03:21.196Z,1009.78
2017-10-11T12:04:30.034Z,1009.78
2017-10-11T12:05:38.865Z,1009.82
2017-10-11T12:06:47.701Z,1009.78
2017-10-11T12:07:56.542Z,1009.82
2017-10-11T12:09:05.373Z,1009.83
2017-10-11T12:10:14.206Z,1009.77
2017-10-11T12:11:23.043Z,1009.75
2017-10-11T12:12:31.877Z,1009.79
2017-10-11T12:13:40.711Z,1009.79
2017-10-11T12:14:49.568Z,1009.76
2017-10-11T12:15:58.387Z,1009.81
2017-10-11T12:17:07.219Z,1009.81
2017-10-11T12:18:16.067Z,1009.81
2017-10-11T12:19:24.893Z,1009.8
2017-10-11T12:20:34.073Z,1009.83
2017-10-11T12:21:42.908Z,1009.79
2017-10-11T12:22:52.088Z,1009.83
2017-10-11T12:24:00.923Z,1009.83
2017-10-11T12:25:09.764Z,1009.83
2017-10-11T12:26:18.600Z,1009.86
2017-10-11T12:27:27.436Z,1009.81
2017-10-11T12:28:36.271Z,1009.73
2017-10-11T12:29:45.101Z,1009.83
2017-10-11T12:30:53.939Z,1009.86
2017-10-11T12:32:03.116Z,1009.82
2017-10-11T12:33:11.951Z,1009.86
2017-10-11T12:34:20.792Z,1009.87
2017-10-11T12:35:29.624Z,1009.85
2017-10-11T12:36:38.465Z,1009.85
2017-10-11T12:37:47.298Z,1009.85
2017-10-11T12:38:56.479Z,1009.8
2017-10-11T12:40:05.317Z,1009.83
2017-10-11T12:41:14.157Z,1009.86
2017-10-11T12:42:22.995Z,1009.84
2017-10-11T12:43:32.164Z,1009.82
2017-10-11T12:44:41.001Z,1009.82
2017-10-11T12:45:49.837Z,1009.84
2017-10-11T12:46:58.678Z,1009.75
2017-10-11T12:48:07.513Z,1009.84
2017-10-11T12:49:16.347Z,1009.75
2017-10-11T12:50:25.513Z,1009.75
2017-10-11T12:51:34.349Z,1009.74
2017-10-11T12:52:43.177Z,1009.74
2017-10-11T12:53:52.014Z,1009.72
2017-10-11T12:55:00.849Z,1009.73
2017-10-11T12:56:10.025Z,1009.73
2017-10-11T12:57:18.857Z,1009.71
2017-10-11T12:58:27.691Z,1009.71
2017-10-11T12:59:36.531Z,1009.68
2017-10-11T13:00:45.362Z,1009.72
2017-10-11T13:01:54.200Z,1009.7
2017-10-11T13:03:03.036Z,1009.69
2017-10-11T13:04:11.872Z,1009.7
2017-10-11T13:05:20.710Z,1009.66
2017-10-11T13:06:29.544Z,1009.68
2017-10-11T13:07:38.379Z,1009.69
2017-10-11T13:08:47.210Z,1009.7
2017-10-11T13:09:56.049Z,1009.68
2017-10-11T13:11:04.902Z,1009.71
2017-10-11T13:12:13.729Z,1009.61
2017-10-11T13:13:22.567Z,1009.7
2017-10-11T13:14:31.737Z,1009.63
2017-10-11T13:15:40.573Z,1009.64
2017-10-11T13:16:49.760Z,1009.66
2017-10-11T13:17:58.585Z,1009.59
2017-10-11T13:19:07.419Z,1009.62
2017-10-11T13:20:16.256Z,1009.61
2017-10-11T13:21:25.089Z,1009.64
2017-10-11T13:22:33.932Z,1009.66
2017-10-11T13:23:42.773Z,1009.63
2017-10-11T13:24:51.608Z,1009.61
2017-10-11T13:26:00.443Z,1009.61
2017-10-11T13:27:09.275Z,1009.64
2017-10-11T13:28:18.112Z,1009.67
2017-10-11T13:29:26.951Z,1009.64
2017-10-11T13:30:36.120Z,1009.61
2017-10-11T13:31:44.957Z,1009.66
2017-10-11T13:32:53.792Z,1009.62
2017-10-11T13:34:02.627Z,1009.57
2017-10-11T13:35:11.461Z,1009.64
2017-10-11T13:36:20.303Z,1009.68
2017-10-11T13:37:29.139Z,1009.68
2017-10-11T13:38:37.974Z,1009.63
2017-10-11T13:39:46.807Z,1009.7
2017-10-11T13:40:55.647Z,1009.7
2017-10-11T13:42:04.482Z,1009.67
2017-10-11T13:43:13.650Z,1009.66
2017-10-11T13:44:22.489Z,1009.7
2017-10-11T13:45:31.330Z,1009.8
2017-10-11T13:46:40.170Z,1009.77
2017-10-11T13:47:48.999Z,1009.73
2017-10-11T13:48:57.840Z,1009.78
2017-10-11T13:50:06.675Z,1009.78
2017-10-11T13:51:15.516Z,1009.77
2017-10-11T13:52:24.349Z,1009.76
2017-10-11T13:53:33.181Z,1009.76
2017-10-11T13:54:42.019Z,1009.71